createdAt,value
2023-04-02T00:01:13.668Z,14.23
2023-04-02T00:06:15.099Z,14.10
2023-04-02T00:11:16.532Z,12.82
2023-04-02T00:16:17.975Z,12.15
2023-04-02T00:21:19.415Z,13.77
2023-04-02T00:26:20.837Z,15.07
2023-04-02T00:31:22.297Z,15.38
2023-04-02T00:36:23.716Z,14.35
2023-04-02T00:41:25.141Z,15.35
2023-04-02T00:46:26.594Z,15.90
2023-04-02T00:51:28.085Z,13.98
2023-04-02T00:56:29.516Z,14.13
2023-04-02T01:01:31.171Z,12.45
2023-04-02T01:06:32.732Z,13.02
2023-04-02T01:11:34.171Z,12.13
2023-04-02T01:16:35.612Z,12.23
2023-04-02T01:21:37.038Z,12.05
2023-04-02T01:26:38.457Z,10.07
2023-04-02T01:31:39.945Z,8.82
2023-04-02T01:36:41.462Z,8.32
2023-04-02T01:41:42.907Z,8.80
2023-04-02T01:46:44.426Z,9.15
2023-04-02T01:51:45.872Z,8.23
2023-04-02T01:56:47.399Z,8.25
2023-04-02T02:01:48.900Z,9.25
2023-04-02T02:06:50.366Z,8.38
2023-04-02T02:11:51.802Z,9.32
2023-04-02T02:16:53.240Z,8.60
2023-04-02T02:21:54.669Z,8.82
2023-04-02T02:26:56.096Z,7.95
2023-04-02T02:31:57.578Z,8.07
2023-04-02T02:36:59.076Z,8.05
2023-04-02T02:42:00.527Z,7.97
2023-04-02T02:47:01.953Z,7.43
2023-04-02T02:52:03.379Z,7.90
2023-04-02T02:57:04.871Z,7.60
2023-04-02T03:02:06.351Z,7.13
2023-04-02T03:07:07.796Z,5.10
2023-04-02T03:12:09.236Z,5.70
2023-04-02T03:17:10.672Z,6.32
2023-04-02T03:22:12.099Z,6.30
2023-04-02T03:27:13.600Z,6.43
2023-04-02T03:32:15.027Z,6.30
2023-04-02T03:37:16.565Z,6.63
2023-04-02T03:42:18.052Z,6.38
2023-04-02T03:47:19.574Z,6.78
2023-04-02T03:52:21.033Z,7.30
2023-04-02T03:57:22.503Z,6.55
2023-04-02T04:02:24.082Z,6.57
2023-04-02T04:07:25.602Z,7.03
2023-04-02T04:12:27.056Z,7.78
2023-04-02T04:17:28.500Z,7.20
2023-04-02T04:22:29.976Z,6.38
2023-04-02T04:27:31.425Z,6.07
2023-04-02T04:32:32.863Z,6.03
2023-04-02T04:37:34.325Z,5.90
2023-04-02T04:42:35.759Z,7.15
2023-04-02T04:47:37.323Z,8.90
2023-04-02T04:52:38.822Z,10.05
2023-04-02T04:57:40.262Z,8.80
2023-04-02T05:02:41.696Z,7.85
2023-04-02T05:07:43.184Z,8.32
2023-04-02T05:12:44.623Z,8.63
2023-04-02T05:17:46.130Z,8.80
2023-04-02T05:22:47.633Z,7.72
2023-04-02T05:27:49.067Z,8.27
2023-04-02T05:32:50.505Z,0.50
2023-04-02T05:37:52.077Z,0.40
2023-04-02T05:42:53.541Z,2.40
2023-04-02T05:47:54.989Z,0.47
2023-04-02T05:52:56.468Z,0.50
2023-04-02T05:58:21.479Z,0.20
2023-04-02T06:03:19.422Z,0.65
2023-04-02T06:08:20.936Z,3.30
2023-04-02T06:13:22.368Z,0.20
2023-04-02T06:18:23.931Z,0.65
2023-04-02T06:23:25.388Z,1.55
2023-04-02T06:28:26.858Z,0.20
2023-04-02T06:33:28.653Z,0.90
2023-04-02T06:38:30.156Z,0.32
2023-04-02T06:43:31.588Z,0.25
2023-04-02T06:48:33.049Z,0.52
2023-04-02T06:53:34.545Z,1.73
2023-04-02T06:58:35.997Z,1.15
2023-04-02T07:03:37.446Z,1.45
2023-04-02T07:08:38.892Z,0.40
2023-04-02T07:13:40.336Z,0.40
2023-04-02T07:18:41.768Z,1.10
2023-04-02T07:23:43.189Z,0.22
2023-04-02T07:28:44.626Z,1.10
2023-04-02T07:33:46.097Z,0.20
2023-04-02T07:38:47.543Z,0.30
2023-04-02T07:43:48.981Z,0.20
2023-04-02T07:48:50.422Z,0.68
2023-04-02T07:53:51.856Z,0.20
2023-04-02T07:58:53.279Z,0.40
2023-04-02T08:03:54.912Z,0.20
2023-04-02T08:08:56.465Z,0.30
2023-04-02T08:13:57.893Z,0.30
2023-04-02T08:18:59.348Z,0.60
2023-04-02T08:24:00.774Z,0.20
2023-04-02T08:29:02.224Z,0.20
2023-04-02T08:34:03.673Z,0.20
2023-04-02T08:39:05.134Z,0.45
2023-04-02T08:44:06.611Z,0.20
2023-04-02T08:49:08.036Z,0.20
2023-04-02T08:54:09.502Z,0.98
2023-04-02T08:59:10.960Z,0.28
2023-04-02T09:04:12.404Z,0.30
2023-04-02T09:09:13.825Z,0.60
2023-04-02T09:14:15.281Z,0.20
2023-04-02T09:19:16.740Z,1.27
2023-04-02T09:24:18.185Z,0.20
2023-04-02T09:29:19.608Z,0.20
2023-04-02T09:34:21.046Z,0.20
2023-04-02T09:39:22.526Z,1.42
2023-04-02T09:44:23.967Z,0.20
2023-04-02T09:49:25.402Z,0.82
2023-04-02T09:54:26.874Z,0.20
2023-04-02T09:59:28.332Z,0.38
2023-04-02T10:04:29.823Z,0.28
2023-04-02T10:09:31.324Z,0.43
2023-04-02T10:14:32.877Z,0.40
2023-04-02T10:19:34.343Z,0.40
2023-04-02T10:24:35.767Z,0.20
2023-04-02T10:29:37.203Z,0.20
2023-04-02T10:34:39.312Z,0.20
2023-04-02T10:39:41.268Z,0.15
2023-04-02T10:44:42.904Z,0.57
2023-04-02T10:49:44.379Z,0.13
2023-04-02T10:54:45.886Z,0.30
2023-04-02T10:59:47.304Z,0.40
2023-04-02T11:04:48.747Z,0.30
2023-04-02T11:09:50.440Z,0.98
2023-04-02T11:14:51.870Z,0.25
2023-04-02T11:19:53.301Z,0.20
2023-04-02T11:24:54.767Z,0.25
2023-04-02T11:29:56.234Z,0.60
2023-04-02T11:35:06.493Z,0.30
2023-04-02T11:40:08.784Z,0.20
2023-04-02T11:45:10.245Z,0.45
2023-04-02T11:50:11.694Z,0.30
2023-04-02T11:55:13.182Z,0.25
2023-04-02T12:00:16.255Z,0.10
2023-04-02T12:05:19.032Z,0.10
2023-04-02T12:10:20.493Z,0.13
2023-04-02T12:15:21.937Z,0.30
2023-04-02T12:20:23.384Z,1.58
2023-04-02T12:25:24.828Z,0.20
2023-04-02T12:30:26.289Z,0.20
2023-04-02T12:35:27.733Z,0.73
2023-04-02T12:40:29.168Z,2.08
2023-04-02T12:45:30.631Z,0.20
2023-04-02T12:50:32.107Z,0.25
2023-04-02T12:55:33.583Z,0.20
2023-04-02T13:00:35.317Z,0.65
2023-04-02T13:05:36.955Z,1.42
2023-04-02T13:10:38.511Z,0.15
2023-04-02T13:15:39.977Z,0.30
2023-04-02T13:20:41.427Z,0.40
2023-04-02T13:25:42.875Z,0.30
2023-04-02T13:30:44.316Z,0.20
2023-04-02T13:35:45.766Z,1.00
2023-04-02T13:40:47.232Z,0.50
2023-04-02T13:45:48.883Z,0.43
2023-04-02T13:50:50.377Z,1.20
2023-04-02T13:55:51.811Z,0.75
2023-04-02T14:00:53.281Z,0.20
2023-04-02T14:05:54.746Z,0.30
2023-04-02T14:10:56.188Z,0.75
2023-04-02T14:15:57.639Z,0.20
2023-04-02T14:20:59.085Z,0.22
2023-04-02T14:26:00.538Z,0.20
2023-04-02T14:31:02.023Z,0.20
2023-04-02T14:36:03.571Z,0.20
2023-04-02T14:41:05.045Z,0.65
2023-04-02T14:46:06.512Z,1.55
2023-04-02T14:51:07.958Z,0.20
2023-04-02T14:56:09.406Z,0.90
2023-04-02T15:01:10.925Z,0.30
2023-04-02T15:06:12.407Z,0.20
2023-04-02T15:11:13.865Z,1.08
2023-04-02T15:16:15.357Z,0.40
2023-04-02T15:21:16.846Z,0.22
2023-04-02T15:26:18.310Z,1.02
2023-04-02T15:31:19.767Z,0.60
2023-04-02T15:36:21.262Z,0.20
2023-04-02T15:41:23.817Z,0.38
2023-04-02T15:46:25.400Z,0.88
2023-04-02T15:51:26.852Z,2.47
2023-04-02T15:56:28.285Z,1.95
2023-04-02T16:01:29.808Z,0.20
2023-04-02T16:06:31.264Z,0.20
2023-04-02T16:11:32.684Z,0.20
2023-04-02T16:16:34.168Z,0.20
2023-04-02T16:21:35.659Z,0.30
2023-04-02T16:26:37.123Z,0.65
2023-04-02T16:31:38.562Z,0.22
2023-04-02T16:36:40.006Z,0.28
2023-04-02T16:41:41.459Z,0.30
2023-04-02T16:46:43.008Z,0.55
2023-04-02T16:51:44.489Z,0.22
2023-04-02T16:56:45.955Z,0.20
2023-04-02T17:01:48.800Z,0.20
2023-04-02T17:06:50.316Z,0.20
2023-04-02T17:11:51.765Z,0.20
2023-04-02T17:16:53.222Z,0.20
2023-04-02T17:21:54.651Z,0.20
2023-04-02T17:26:56.100Z,0.95
2023-04-02T17:31:58.810Z,0.25
2023-04-02T17:37:01.509Z,0.65
2023-04-02T17:42:02.938Z,0.50
2023-04-02T17:47:04.410Z,0.20
2023-04-02T17:52:05.865Z,0.30
2023-04-02T17:57:07.400Z,0.80
2023-04-02T18:02:08.885Z,1.70
2023-04-02T18:07:10.352Z,1.50
2023-04-02T18:12:11.778Z,0.22
2023-04-02T18:17:13.217Z,1.23
2023-04-02T18:22:14.647Z,1.08
2023-04-02T18:27:16.067Z,0.70
2023-04-02T18:32:17.517Z,0.40
2023-04-02T18:37:18.948Z,0.90
2023-04-02T18:42:20.410Z,0.50
2023-04-02T18:47:21.868Z,0.20
2023-04-02T18:52:23.332Z,1.08
2023-04-02T18:57:24.812Z,0.60
2023-04-02T19:02:26.528Z,0.93
2023-04-02T19:07:28.022Z,0.30
2023-04-02T19:12:29.468Z,0.38
2023-04-02T19:17:30.986Z,0.20
2023-04-02T19:22:32.502Z,1.65
2023-04-02T19:27:33.955Z,0.30
2023-04-02T19:32:35.441Z,0.30
2023-04-02T19:37:36.896Z,0.20
2023-04-02T19:42:38.404Z,0.40
2023-04-02T19:47:39.872Z,0.20
2023-04-02T19:52:41.340Z,0.30
2023-04-02T19:57:42.895Z,0.52
2023-04-02T20:02:44.452Z,0.22
2023-04-02T20:07:45.920Z,0.20
2023-04-02T20:12:47.385Z,0.20
2023-04-02T20:17:48.872Z,0.22
2023-04-02T20:22:50.300Z,0.55
2023-04-02T20:27:51.751Z,0.20
2023-04-02T20:32:53.401Z,0.20
2023-04-02T20:37:54.998Z,0.20
2023-04-02T20:42:56.453Z,0.35
2023-04-02T20:47:57.936Z,0.20
2023-04-02T20:52:59.388Z,0.20
2023-04-02T20:58:00.844Z,0.25
2023-04-02T21:03:02.301Z,0.20
2023-04-02T21:08:03.804Z,0.10
2023-04-02T21:13:05.237Z,0.20
2023-04-02T21:18:06.707Z,0.55
2023-04-02T21:23:17.498Z,0.30
2023-04-02T21:33:44.346Z,0.30
2023-04-02T21:44:28.945Z,0.22
2023-04-02T21:49:30.400Z,0.22
2023-04-02T21:54:31.844Z,0.20
2023-04-02T21:59:33.271Z,0.40
2023-04-02T22:04:34.780Z,0.30
2023-04-02T22:25:44.875Z,0.70
2023-04-02T22:30:46.369Z,0.30
2023-04-02T22:35:47.854Z,0.25
2023-04-02T22:40:49.311Z,0.30
2023-04-02T22:45:50.776Z,1.38
2023-04-02T22:50:52.264Z,0.25
2023-04-02T22:55:53.715Z,1.63
2023-04-02T23:00:55.173Z,0.77
2023-04-02T23:05:56.607Z,0.50
2023-04-02T23:10:58.077Z,0.30
2023-04-02T23:15:59.578Z,0.93
2023-04-02T23:21:01.089Z,0.25
2023-04-02T23:26:02.540Z,0.30
2023-04-02T23:31:04.022Z,0.30
2023-04-02T23:36:05.489Z,0.30
2023-04-02T23:41:06.939Z,0.63
2023-04-02T23:46:08.376Z,0.40
2023-04-02T23:51:09.812Z,0.20
2023-04-02T23:56:11.256Z,0.43
